Mina, South Dakota
Current Conditions -  °F | °C
As of 8:53 AM on Friday 19 Dec 2014 (Local Time) from KABR Reporting Station
Haze Haze  
Wind Chill: 16°   Ceiling: 500
Heat Index: 28°   Visibility: 4mi
Dew Point: 25°   Wind: 16mph
Humidity: 88%   Direction: 190°S
Pressure: 30.06"   Gusts: NA
Location:  45.43°N, 98.76°W
Report Text: KABR 191453Z AUTO 19014KT 4SM BR OVC005 M02/M04 A3006 RMK AO2 SLP197 T10221039 58002
Loading
Personal Weather Stations






























Interactive Weather Map New forecast layout! Learn more

10-Day Weather Forecast

Advertisements
Track Severe Weather on mobile